Horseshoe Lake, Washington
Current Conditions -  °F | °C
As of 6:35 PM on Tuesday 21 Oct 2014 (Local Time) from KPWT Reporting Station
Overcast Overcast  
Wind Chill: 57°   Ceiling: 5000
Heat Index: 57°   Visibility: 10mi
Dew Point: 50°   Wind: 9mph
Humidity: 77%   Direction: 170°S
Pressure: 29.86"   Gusts: NA
Location:  47.5378°N, 122.589°W
Report Text: KPWT 220135Z AUTO 17008KT 10SM FEW046 BKN050 OVC065 14/10 A2986 RMK AO1
Loading
Personal Weather Stations






























Interactive Weather Map
Tropical Storm Tracking
New forecast layout! Learn more

10-Day Weather Forecast

Advertisements
Track Severe Weather on mobile